You are listening to:
YSBK ATIS - Bankstown, New South Wales, Australia

YSSY 270900Z 18017KT 9999 FEW020 SCT085 17/13 Q1019 INTER 1130/1200 4000 SHRA BKN014

If stream doesn't start automatically press the play button
If stream stops then reload player then press play